createdAt,value
2023-11-22T00:02:22.072Z,6.30
2023-11-22T00:04:50.327Z,6.40
2023-11-22T00:07:17.443Z,6.40
2023-11-22T00:09:44.526Z,6.40
2023-11-22T00:12:12.045Z,6.40
2023-11-22T00:14:39.253Z,6.30
2023-11-22T00:17:06.608Z,6.30
2023-11-22T00:19:33.981Z,6.30
2023-11-22T00:22:01.627Z,6.30
2023-11-22T00:24:28.709Z,6.40
2023-11-22T00:26:55.727Z,6.50
2023-11-22T00:29:22.917Z,6.50
2023-11-22T00:31:50.056Z,6.50
2023-11-22T00:34:20.670Z,6.50
2023-11-22T00:36:50.180Z,6.50
2023-11-22T00:39:17.922Z,6.50
2023-11-22T00:41:46.011Z,6.50
2023-11-22T00:44:13.679Z,6.60
2023-11-22T00:46:41.077Z,6.60
2023-11-22T00:49:09.615Z,6.50
2023-11-22T00:51:36.705Z,6.50
2023-11-22T00:54:04.196Z,6.60
2023-11-22T00:56:31.304Z,6.70
2023-11-22T00:59:01.155Z,6.70
2023-11-22T01:01:28.471Z,6.70
2023-11-22T01:03:55.585Z,6.70
2023-11-22T01:06:24.448Z,6.80
2023-11-22T01:08:52.106Z,6.80
2023-11-22T01:11:19.218Z,6.80
2023-11-22T01:13:47.850Z,6.80
2023-11-22T01:16:14.916Z,6.80
2023-11-22T01:18:44.436Z,6.70
2023-11-22T01:21:13.329Z,6.70
2023-11-22T01:23:40.286Z,6.70
2023-11-22T01:26:07.388Z,6.50
2023-11-22T01:28:35.571Z,6.40
2023-11-22T01:31:05.525Z,6.30
2023-11-22T01:33:33.723Z,6.30
2023-11-22T01:36:00.910Z,6.30
2023-11-22T01:38:28.092Z,6.30
2023-11-22T01:40:55.239Z,6.30
2023-11-22T01:43:25.522Z,6.30
2023-11-22T01:45:53.444Z,6.40
2023-11-22T01:48:20.813Z,6.40
2023-11-22T01:50:48.086Z,6.40
2023-11-22T01:53:17.682Z,6.40
2023-11-22T01:55:48.130Z,6.40
2023-11-22T01:58:15.415Z,6.40
2023-11-22T02:00:53.131Z,6.40
2023-11-22T02:03:20.631Z,6.30
2023-11-22T02:05:48.325Z,6.20
2023-11-22T02:08:15.440Z,6.20
2023-11-22T02:10:43.205Z,6.20
2023-11-22T02:13:11.384Z,6.20
2023-11-22T02:15:39.232Z,6.30
2023-11-22T02:18:13.592Z,6.20
2023-11-22T02:20:42.715Z,6.20
2023-11-22T02:23:10.642Z,6.20
2023-11-22T02:25:38.004Z,6.20
2023-11-22T02:28:05.202Z,6.10
2023-11-22T02:30:32.970Z,6.10
2023-11-22T02:33:00.608Z,6.00
2023-11-22T02:35:33.289Z,6.00
2023-11-22T02:38:01.120Z,6.00
2023-11-22T02:40:29.786Z,6.10
2023-11-22T02:43:02.174Z,6.00
2023-11-22T02:45:30.295Z,6.00
2023-11-22T02:47:57.579Z,6.00
2023-11-22T02:50:24.702Z,6.10
2023-11-22T02:52:52.170Z,6.10
2023-11-22T02:55:19.248Z,6.00
2023-11-22T02:57:46.701Z,6.00
2023-11-22T03:00:17.265Z,6.00
2023-11-22T03:02:44.596Z,6.00
2023-11-22T03:05:12.233Z,6.00
2023-11-22T03:07:39.911Z,5.90
2023-11-22T03:10:08.852Z,5.80
2023-11-22T03:12:36.411Z,5.80
2023-11-22T03:15:03.771Z,5.80
2023-11-22T03:17:31.569Z,5.80
2023-11-22T03:19:59.282Z,5.80
2023-11-22T03:22:27.775Z,5.80
2023-11-22T03:24:55.042Z,5.80
2023-11-22T03:27:23.727Z,5.80
2023-11-22T03:29:50.986Z,5.90
2023-11-22T03:32:18.907Z,5.90
2023-11-22T03:34:46.299Z,5.90
2023-11-22T03:37:13.412Z,5.90
2023-11-22T03:39:41.244Z,5.90
2023-11-22T03:42:08.304Z,5.80
2023-11-22T03:44:35.442Z,5.80
2023-11-22T03:47:02.769Z,5.80
2023-11-22T03:49:29.986Z,5.80
2023-11-22T03:51:57.148Z,5.80
2023-11-22T03:54:24.206Z,5.90
2023-11-22T03:56:51.877Z,5.90
2023-11-22T03:59:19.749Z,5.90
2023-11-22T04:01:47.257Z,5.90
2023-11-22T04:04:15.125Z,5.80
2023-11-22T04:06:42.173Z,5.80
2023-11-22T04:09:09.616Z,5.70
2023-11-22T04:11:37.203Z,5.70
2023-11-22T04:14:04.425Z,5.60
2023-11-22T04:16:31.862Z,5.60
2023-11-22T04:18:59.516Z,5.70
2023-11-22T04:21:26.892Z,5.80
2023-11-22T04:23:53.945Z,5.80
2023-11-22T04:26:21.723Z,6.00
2023-11-22T04:28:49.002Z,6.00
2023-11-22T04:31:16.734Z,6.00
2023-11-22T04:33:43.886Z,6.00
2023-11-22T04:36:11.248Z,6.00
2023-11-22T04:38:38.388Z,6.00
2023-11-22T04:41:05.545Z,5.90
2023-11-22T04:43:32.856Z,5.90
2023-11-22T04:46:00.262Z,5.90
2023-11-22T04:48:27.405Z,5.90
2023-11-22T04:50:54.525Z,6.00
2023-11-22T04:53:21.693Z,6.10
2023-11-22T04:55:50.405Z,6.10
2023-11-22T04:58:17.490Z,6.10
2023-11-22T05:00:44.574Z,6.10
2023-11-22T05:03:11.766Z,6.10
2023-11-22T05:05:38.871Z,6.20
2023-11-22T05:08:06.183Z,6.20
2023-11-22T05:10:33.326Z,6.30
2023-11-22T05:13:00.975Z,6.30
2023-11-22T05:15:29.021Z,6.30
2023-11-22T05:17:56.050Z,6.40
2023-11-22T05:20:23.428Z,6.50
2023-11-22T05:22:50.516Z,6.40
2023-11-22T05:25:17.575Z,6.20
2023-11-22T05:27:44.643Z,6.00
2023-11-22T05:30:12.707Z,5.80
2023-11-22T05:32:39.924Z,5.70
2023-11-22T05:35:11.056Z,5.50
2023-11-22T05:37:38.666Z,5.40
2023-11-22T05:40:06.850Z,5.40
2023-11-22T05:42:34.447Z,5.30
2023-11-22T05:45:01.496Z,5.30
2023-11-22T05:47:28.720Z,5.40
2023-11-22T05:49:55.843Z,5.50
2023-11-22T05:52:24.856Z,5.50
2023-11-22T05:54:52.621Z,5.60
2023-11-22T05:57:21.174Z,5.60
2023-11-22T05:59:48.492Z,5.70
2023-11-22T06:02:15.585Z,5.80
2023-11-22T06:04:43.276Z,5.80
2023-11-22T06:07:10.565Z,5.90
2023-11-22T06:09:37.654Z,6.00
2023-11-22T06:12:05.283Z,6.00
2023-11-22T06:14:32.602Z,6.00
2023-11-22T06:16:59.786Z,6.10
2023-11-22T06:19:27.203Z,6.00
2023-11-22T06:21:55.769Z,6.10
2023-11-22T06:24:23.139Z,6.10
2023-11-22T06:26:51.652Z,6.10
2023-11-22T06:29:18.767Z,6.20
2023-11-22T06:31:45.988Z,6.20
2023-11-22T06:34:13.842Z,6.30
2023-11-22T06:36:41.190Z,6.30
2023-11-22T06:39:10.389Z,6.40
2023-11-22T06:41:38.047Z,6.30
2023-11-22T06:44:05.657Z,6.30
2023-11-22T06:46:32.683Z,6.30
2023-11-22T06:49:00.196Z,6.20
2023-11-22T06:51:27.687Z,6.10
2023-11-22T06:53:58.173Z,5.90
2023-11-22T06:56:26.347Z,5.90
2023-11-22T06:58:53.603Z,5.90
2023-11-22T07:01:26.879Z,5.90
2023-11-22T07:03:57.089Z,5.90
2023-11-22T07:06:24.445Z,6.00
2023-11-22T07:08:51.522Z,6.00
2023-11-22T07:11:24.932Z,6.10
2023-11-22T07:13:53.338Z,6.20
2023-11-22T07:16:22.001Z,6.20
2023-11-22T07:18:49.255Z,6.20
2023-11-22T07:21:16.460Z,6.20
2023-11-22T07:23:43.859Z,6.10
2023-11-22T07:26:11.492Z,5.80
2023-11-22T07:28:38.657Z,5.70
2023-11-22T07:31:09.106Z,5.60
2023-11-22T07:33:43.220Z,5.60
2023-11-22T07:36:10.919Z,5.70
2023-11-22T07:38:39.392Z,5.70
2023-11-22T07:41:08.704Z,5.70
2023-11-22T07:43:37.361Z,5.70
2023-11-22T07:46:14.575Z,5.70
2023-11-22T07:48:43.173Z,5.70
2023-11-22T07:51:10.686Z,5.50
2023-11-22T07:53:37.761Z,5.30
2023-11-22T07:56:05.789Z,5.30
2023-11-22T07:58:33.093Z,5.20
2023-11-22T08:01:00.975Z,5.20
2023-11-22T08:03:28.437Z,5.30
2023-11-22T08:05:56.944Z,5.40
2023-11-22T08:08:25.068Z,5.50
2023-11-22T08:10:55.505Z,5.50
2023-11-22T08:13:25.783Z,5.60
2023-11-22T08:15:54.213Z,5.60
2023-11-22T08:18:23.389Z,5.60
2023-11-22T08:20:51.210Z,5.70
2023-11-22T08:23:19.424Z,5.70
2023-11-22T08:25:46.824Z,5.70
2023-11-22T08:28:14.345Z,5.70
2023-11-22T08:30:42.591Z,5.70
2023-11-22T08:33:10.126Z,5.80
2023-11-22T08:35:37.501Z,5.90
2023-11-22T08:38:06.364Z,5.90
2023-11-22T08:40:33.365Z,6.00
2023-11-22T08:43:00.371Z,6.10
2023-11-22T08:45:30.395Z,6.10
2023-11-22T08:47:57.639Z,6.20
2023-11-22T08:50:24.888Z,6.20
2023-11-22T08:52:54.768Z,6.30
2023-11-22T08:55:25.532Z,6.30
2023-11-22T08:57:52.664Z,6.20
2023-11-22T09:00:30.243Z,6.20
2023-11-22T09:02:57.519Z,6.10
2023-11-22T09:05:25.046Z,5.90
2023-11-22T09:07:52.440Z,5.80
2023-11-22T09:10:20.367Z,5.80
2023-11-22T09:12:48.898Z,5.80
2023-11-22T09:15:20.097Z,5.90
2023-11-22T09:17:48.549Z,5.90
2023-11-22T09:20:17.018Z,6.00
2023-11-22T09:22:49.872Z,6.10
2023-11-22T09:25:18.107Z,6.20
2023-11-22T09:27:48.784Z,6.40
2023-11-22T09:30:34.016Z,6.40
2023-11-22T09:33:08.993Z,6.50
2023-11-22T09:35:38.300Z,6.50
2023-11-22T09:38:13.886Z,6.50
2023-11-22T09:40:46.729Z,6.40
2023-11-22T09:43:22.101Z,6.40
2023-11-22T09:45:54.256Z,6.30
2023-11-22T09:48:26.736Z,6.40
2023-11-22T09:51:12.451Z,6.40
2023-11-22T09:53:49.752Z,6.30
2023-11-22T09:56:17.135Z,6.40
2023-11-22T09:58:45.427Z,6.60
2023-11-22T10:01:14.711Z,6.70
2023-11-22T10:03:42.382Z,6.80
2023-11-22T10:06:09.856Z,6.90
2023-11-22T10:08:38.582Z,7.00
2023-11-22T10:11:06.248Z,7.10
2023-11-22T10:13:33.646Z,7.20
2023-11-22T10:16:12.534Z,7.20
2023-11-22T10:18:44.772Z,7.30
2023-11-22T10:21:31.814Z,7.40
2023-11-22T10:24:05.916Z,7.40
2023-11-22T10:26:34.288Z,7.40
2023-11-22T10:29:01.506Z,7.30
2023-11-22T10:31:29.558Z,7.40
2023-11-22T10:33:59.166Z,7.50
2023-11-22T10:36:26.929Z,7.70
2023-11-22T10:38:55.972Z,7.70
2023-11-22T10:41:24.482Z,7.60
2023-11-22T10:43:57.726Z,7.60
2023-11-22T10:46:30.170Z,7.70
2023-11-22T10:48:59.670Z,7.70
2023-11-22T10:51:33.571Z,7.50
2023-11-22T10:54:06.152Z,7.40
2023-11-22T10:56:41.004Z,7.60
2023-11-22T10:59:15.307Z,7.70
2023-11-22T11:01:49.320Z,8.20
2023-11-22T11:04:39.618Z,8.60
2023-11-22T11:07:11.455Z,9.20
2023-11-22T11:09:40.606Z,9.30
2023-11-22T11:12:09.442Z,9.20
2023-11-22T11:14:38.293Z,9.10
2023-11-22T11:17:06.770Z,9.10
2023-11-22T11:19:34.743Z,9.30
2023-11-22T11:22:05.831Z,9.40
2023-11-22T11:24:40.407Z,9.70
2023-11-22T11:27:12.139Z,9.90
2023-11-22T11:29:44.403Z,9.70
2023-11-22T11:32:14.761Z,9.60
2023-11-22T11:34:51.604Z,9.60
2023-11-22T11:37:22.526Z,9.70
2023-11-22T11:39:49.829Z,9.90
2023-11-22T11:42:18.747Z,10.10
2023-11-22T11:45:08.707Z,9.90
2023-11-22T11:47:36.154Z,10.10
2023-11-22T11:50:04.168Z,10.40
2023-11-22T11:52:32.588Z,10.80
2023-11-22T11:55:00.558Z,11.20
2023-11-22T11:57:33.466Z,11.50
2023-11-22T12:00:00.960Z,11.80
2023-11-22T12:02:28.211Z,12.10
2023-11-22T12:04:56.009Z,12.10
2023-11-22T12:07:23.087Z,12.20
2023-11-22T12:09:50.086Z,12.30
2023-11-22T12:12:17.169Z,12.30
2023-11-22T12:14:45.399Z,12.10
2023-11-22T12:17:12.643Z,12.20
2023-11-22T12:19:39.772Z,12.50
2023-11-22T12:22:09.170Z,12.70
2023-11-22T12:24:36.456Z,12.60
2023-11-22T12:27:03.909Z,12.40
2023-11-22T12:29:31.020Z,12.40
2023-11-22T12:31:58.399Z,12.40
2023-11-22T12:34:28.048Z,12.40
2023-11-22T12:36:55.166Z,12.40
2023-11-22T12:39:22.603Z,12.60
2023-11-22T12:42:01.878Z,12.70
2023-11-22T12:44:48.791Z,12.90
2023-11-22T12:47:17.382Z,13.00
2023-11-22T12:49:51.188Z,13.10
2023-11-22T12:52:18.333Z,13.00
2023-11-22T12:54:49.125Z,13.10
2023-11-22T12:57:17.724Z,13.20
2023-11-22T12:59:46.800Z,13.50
2023-11-22T13:02:14.104Z,13.50
2023-11-22T13:04:41.259Z,13.40
2023-11-22T13:07:08.495Z,13.20
2023-11-22T13:09:36.936Z,13.20
2023-11-22T13:12:05.368Z,13.00
2023-11-22T13:17:07.977Z,13.30
2023-11-22T13:19:38.423Z,13.40
2023-11-22T13:22:06.945Z,13.20
2023-11-22T13:24:34.012Z,12.80
2023-11-22T13:27:01.545Z,12.10
2023-11-22T13:29:28.610Z,11.90
2023-11-22T13:31:55.714Z,11.80
2023-11-22T13:34:22.850Z,11.50
2023-11-22T13:36:49.938Z,11.10
2023-11-22T13:39:17.949Z,11.00
2023-11-22T13:41:45.066Z,11.00
2023-11-22T13:44:12.208Z,11.10
2023-11-22T13:46:39.363Z,11.10
2023-11-22T13:49:07.651Z,11.40
2023-11-22T13:51:35.908Z,11.60
2023-11-22T13:54:02.968Z,11.50
2023-11-22T13:56:30.179Z,11.40
2023-11-22T13:58:58.753Z,11.20
2023-11-22T14:01:28.049Z,11.10
2023-11-22T14:03:56.410Z,11.10
2023-11-22T14:06:24.698Z,11.20
2023-11-22T14:08:51.916Z,11.30
2023-11-22T14:11:19.789Z,11.40
2023-11-22T14:13:46.994Z,11.60
2023-11-22T14:16:16.384Z,11.70
2023-11-22T14:18:43.775Z,12.00
2023-11-22T14:21:11.767Z,12.10
2023-11-22T14:23:39.093Z,12.30
2023-11-22T14:26:06.774Z,12.70
2023-11-22T14:28:34.439Z,12.90
2023-11-22T14:31:01.530Z,13.30
2023-11-22T14:33:33.206Z,13.40
2023-11-22T14:36:00.513Z,13.60
2023-11-22T14:38:28.049Z,13.60
2023-11-22T14:40:55.173Z,13.70
2023-11-22T14:43:22.286Z,13.90
2023-11-22T14:45:49.367Z,14.10
2023-11-22T14:48:18.387Z,14.20
2023-11-22T14:50:46.199Z,14.50
2023-11-22T14:53:13.226Z,15.20
2023-11-22T14:55:42.734Z,15.90
2023-11-22T14:58:10.020Z,16.50
2023-11-22T15:00:38.472Z,16.80
2023-11-22T15:03:05.968Z,16.80
2023-11-22T15:05:33.754Z,16.70
2023-11-22T15:08:01.096Z,16.30
2023-11-22T15:10:28.221Z,15.50
2023-11-22T15:12:56.933Z,14.60
2023-11-22T15:15:27.151Z,13.70
2023-11-22T15:17:55.544Z,12.90
2023-11-22T15:20:23.418Z,12.40
2023-11-22T15:22:51.717Z,11.90
2023-11-22T15:25:19.558Z,11.50
2023-11-22T15:27:46.750Z,11.10
2023-11-22T15:30:14.315Z,10.80
2023-11-22T15:32:41.597Z,10.70
2023-11-22T15:35:10.176Z,10.50
2023-11-22T15:37:37.347Z,10.30
2023-11-22T15:40:05.848Z,10.10
2023-11-22T15:42:33.120Z,10.00
2023-11-22T15:45:00.410Z,9.90
2023-11-22T15:47:27.902Z,9.80
2023-11-22T15:49:56.164Z,9.70
2023-11-22T15:52:23.549Z,9.60
2023-11-22T15:54:51.136Z,9.50
2023-11-22T15:57:18.300Z,9.40
2023-11-22T15:59:45.561Z,9.40
2023-11-22T16:02:13.002Z,9.30
2023-11-22T16:04:40.186Z,9.20
2023-11-22T16:07:07.643Z,9.20
2023-11-22T16:09:35.154Z,9.10
2023-11-22T16:12:02.582Z,9.10
2023-11-22T16:14:30.740Z,9.00
2023-11-22T16:16:58.089Z,8.80
2023-11-22T16:19:26.070Z,8.70
2023-11-22T16:21:53.930Z,8.60
2023-11-22T16:24:21.017Z,8.50
2023-11-22T16:26:48.977Z,8.40
2023-11-22T16:29:17.317Z,8.30
2023-11-22T16:31:44.702Z,8.30
2023-11-22T16:34:12.413Z,8.20
2023-11-22T16:36:39.651Z,8.10
2023-11-22T16:39:19.999Z,8.10
2023-11-22T16:41:52.024Z,8.10
2023-11-22T16:44:20.571Z,8.10
2023-11-22T16:46:48.920Z,8.10
2023-11-22T16:49:16.580Z,8.10
2023-11-22T16:51:45.532Z,8.10
2023-11-22T16:54:12.786Z,8.00
2023-11-22T16:56:40.254Z,8.10
2023-11-22T16:59:10.048Z,8.10
2023-11-22T17:01:37.261Z,8.00
2023-11-22T17:04:04.617Z,7.90
2023-11-22T17:06:31.900Z,7.90
2023-11-22T17:08:59.029Z,7.90
2023-11-22T17:11:26.930Z,7.80
2023-11-22T17:13:54.187Z,7.80
2023-11-22T17:16:21.282Z,7.80
2023-11-22T17:18:49.076Z,7.70
2023-11-22T17:21:18.266Z,7.70
2023-11-22T17:23:45.909Z,7.70
2023-11-22T17:26:13.885Z,7.60
2023-11-22T17:28:41.407Z,7.60
2023-11-22T17:31:08.695Z,7.60
2023-11-22T17:33:36.438Z,7.50
2023-11-22T17:36:05.319Z,7.40
2023-11-22T17:38:33.019Z,7.50
2023-11-22T17:41:01.632Z,7.50
2023-11-22T17:43:29.284Z,7.50
2023-11-22T17:45:57.166Z,7.30
2023-11-22T17:48:24.446Z,7.30
2023-11-22T17:50:51.767Z,7.20
2023-11-22T17:53:18.899Z,7.20
2023-11-22T17:55:46.029Z,7.20
2023-11-22T17:58:13.265Z,7.30
2023-11-22T18:00:40.386Z,7.30
2023-11-22T18:03:07.680Z,7.30
2023-11-22T18:05:34.841Z,7.30
2023-11-22T18:08:02.763Z,7.20
2023-11-22T18:10:38.801Z,7.10
2023-11-22T18:13:14.574Z,7.00
2023-11-22T18:15:44.505Z,6.90
2023-11-22T18:18:12.202Z,7.00
2023-11-22T18:20:42.196Z,7.00
2023-11-22T18:23:09.856Z,7.00
2023-11-22T18:25:37.341Z,6.90
2023-11-22T18:28:07.098Z,6.90
2023-11-22T18:30:34.203Z,6.90
2023-11-22T18:33:01.408Z,6.80
2023-11-22T18:35:28.667Z,6.70
2023-11-22T18:37:55.735Z,6.70
2023-11-22T18:40:24.652Z,6.70
2023-11-22T18:42:51.673Z,6.70
2023-11-22T18:45:18.726Z,6.70
2023-11-22T18:47:49.997Z,6.70
2023-11-22T18:50:17.388Z,6.60
2023-11-22T18:52:44.646Z,6.60
2023-11-22T18:55:12.086Z,6.60
2023-11-22T18:57:41.950Z,6.70
2023-11-22T19:00:12.027Z,6.70
2023-11-22T19:02:39.540Z,6.70
2023-11-22T19:05:08.543Z,6.60
2023-11-22T19:07:35.616Z,6.50
2023-11-22T19:10:02.854Z,6.50
2023-11-22T19:12:29.846Z,6.50
2023-11-22T19:14:57.051Z,6.50
2023-11-22T19:17:24.185Z,6.40
2023-11-22T19:19:51.261Z,6.30
2023-11-22T19:22:18.553Z,6.40
2023-11-22T19:24:45.644Z,6.30
2023-11-22T19:27:12.965Z,6.30
2023-11-22T19:29:40.839Z,6.30
2023-11-22T19:32:08.444Z,6.30
2023-11-22T19:34:35.743Z,6.30
2023-11-22T19:37:02.968Z,6.40
2023-11-22T19:39:29.967Z,6.30
2023-11-22T19:41:57.106Z,6.20
2023-11-22T19:44:24.181Z,6.20
2023-11-22T19:46:51.339Z,6.10
2023-11-22T19:49:19.246Z,6.10
2023-11-22T19:51:46.419Z,6.10
2023-11-22T19:54:15.273Z,6.10
2023-11-22T19:56:42.964Z,6.20
2023-11-22T19:59:10.189Z,6.20
2023-11-22T20:01:37.507Z,6.20
2023-11-22T20:04:04.999Z,6.20
2023-11-22T20:06:32.135Z,6.10
2023-11-22T20:08:59.258Z,6.20
2023-11-22T20:11:26.628Z,6.20
2023-11-22T20:13:53.942Z,6.20
2023-11-22T20:16:21.033Z,6.10
2023-11-22T20:18:48.363Z,6.10
2023-11-22T20:21:16.047Z,6.10
2023-11-22T20:23:43.231Z,6.10
2023-11-22T20:26:11.346Z,6.00
2023-11-22T20:28:39.134Z,6.00
2023-11-22T20:31:06.415Z,6.00
2023-11-22T20:33:33.759Z,5.90
2023-11-22T20:36:03.801Z,5.90
2023-11-22T20:38:31.683Z,5.90
2023-11-22T20:40:59.065Z,5.90
2023-11-22T20:43:26.125Z,6.00
2023-11-22T20:45:53.850Z,5.90
2023-11-22T20:48:21.453Z,5.80
2023-11-22T20:50:49.148Z,5.80
2023-11-22T20:53:16.424Z,5.80
2023-11-22T20:55:43.566Z,5.80
2023-11-22T20:58:10.704Z,5.90
2023-11-22T21:00:37.733Z,5.90
2023-11-22T21:03:05.218Z,5.80
2023-11-22T21:05:32.539Z,5.90
2023-11-22T21:08:00.247Z,5.80
2023-11-22T21:10:28.142Z,5.80
2023-11-22T21:12:55.225Z,5.80
2023-11-22T21:15:22.293Z,5.80
2023-11-22T21:17:49.953Z,5.80
2023-11-22T21:20:19.494Z,5.80
2023-11-22T21:22:46.616Z,5.80
2023-11-22T21:25:13.735Z,5.70
2023-11-22T21:27:46.027Z,5.60
2023-11-22T21:30:14.023Z,5.60
2023-11-22T21:32:41.634Z,5.70
2023-11-22T21:35:09.611Z,5.60
2023-11-22T21:37:37.133Z,5.70
2023-11-22T21:40:11.800Z,5.60
2023-11-22T21:42:40.659Z,5.70
2023-11-22T21:45:09.544Z,5.60
2023-11-22T21:47:37.705Z,5.50
2023-11-22T21:50:05.917Z,5.50
2023-11-22T21:52:32.932Z,5.60
2023-11-22T21:55:00.269Z,5.60
2023-11-22T21:57:27.328Z,5.50
2023-11-22T21:59:54.470Z,5.50
2023-11-22T22:02:21.874Z,5.40
2023-11-22T22:04:49.012Z,5.50
2023-11-22T22:07:16.018Z,5.40
2023-11-22T22:09:44.776Z,5.40
2023-11-22T22:12:12.237Z,5.40
2023-11-22T22:14:39.448Z,5.40
2023-11-22T22:17:06.577Z,5.40
2023-11-22T22:19:33.736Z,5.40
2023-11-22T22:22:01.090Z,5.40
2023-11-22T22:24:28.701Z,5.50
2023-11-22T22:26:55.810Z,5.40
2023-11-22T22:29:22.848Z,5.40
2023-11-22T22:31:49.932Z,5.40
2023-11-22T22:34:16.931Z,5.40
2023-11-22T22:36:43.901Z,5.40
2023-11-22T22:39:11.072Z,5.30
2023-11-22T22:41:39.084Z,5.30
2023-11-22T22:44:07.187Z,5.30
2023-11-22T22:46:34.478Z,5.30
2023-11-22T22:49:01.935Z,5.30
2023-11-22T22:51:29.967Z,5.30
2023-11-22T22:53:57.675Z,5.20
2023-11-22T22:56:24.814Z,5.20
2023-11-22T22:58:52.046Z,5.20
2023-11-22T23:01:19.600Z,5.30
2023-11-22T23:03:47.421Z,5.20
2023-11-22T23:06:27.905Z,5.10
2023-11-22T23:08:57.158Z,5.10
2023-11-22T23:11:25.885Z,5.10
2023-11-22T23:13:53.326Z,5.10
2023-11-22T23:16:20.443Z,5.10
2023-11-22T23:18:55.619Z,5.10
2023-11-22T23:21:28.410Z,5.20
2023-11-22T23:23:55.829Z,5.10
2023-11-22T23:26:23.293Z,5.20
2023-11-22T23:28:50.766Z,5.20
2023-11-22T23:31:21.109Z,5.20
2023-11-22T23:33:51.726Z,5.10
2023-11-22T23:36:19.048Z,5.10
2023-11-22T23:38:47.246Z,5.00
2023-11-22T23:41:14.344Z,5.00
2023-11-22T23:43:41.651Z,5.00
2023-11-22T23:46:10.233Z,5.00
2023-11-22T23:48:37.679Z,5.10
2023-11-22T23:51:06.084Z,5.00
2023-11-22T23:53:33.215Z,5.00
2023-11-22T23:56:00.566Z,4.90
2023-11-22T23:58:27.566Z,4.90
